sensor_id;sensor_type;location;lat;lon;timestamp;temperature;humidity
1359;DHT22;673;48.098;14.422;2022-09-30T00:00:21;9.90;99.90
1359;DHT22;673;48.098;14.422;2022-09-30T00:02:48;9.80;99.90
1359;DHT22;673;48.098;14.422;2022-09-30T00:05:15;9.80;99.90
1359;DHT22;673;48.098;14.422;2022-09-30T00:07:42;9.90;99.90
1359;DHT22;673;48.098;14.422;2022-09-30T00:10:09;9.90;99.90
1359;DHT22;673;48.098;14.422;2022-09-30T00:12:36;9.80;99.90
1359;DHT22;673;48.098;14.422;2022-09-30T00:15:05;9.90;99.90
1359;DHT22;673;48.098;14.422;2022-09-30T00:17:33;9.90;99.90
1359;DHT22;673;48.098;14.422;2022-09-30T00:20:01;9.90;99.90
1359;DHT22;673;48.098;14.422;2022-09-30T00:22:27;9.90;99.90
1359;DHT22;673;48.098;14.422;2022-09-30T00:24:54;9.90;99.90
1359;DHT22;673;48.098;14.422;2022-09-30T00:27:22;9.90;99.90
1359;DHT22;673;48.098;14.422;2022-09-30T00:29:48;9.90;99.90
1359;DHT22;673;48.098;14.422;2022-09-30T00:32:15;9.90;99.90
1359;DHT22;673;48.098;14.422;2022-09-30T00:34:44;9.90;99.90
1359;DHT22;673;48.098;14.422;2022-09-30T00:37:11;9.90;99.90
1359;DHT22;673;48.098;14.422;2022-09-30T00:39:40;9.90;99.90
1359;DHT22;673;48.098;14.422;2022-09-30T00:42:11;9.90;99.90
1359;DHT22;673;48.098;14.422;2022-09-30T00:44:52;10.00;99.90
1359;DHT22;673;48.098;14.422;2022-09-30T00:47:35;10.00;99.90
1359;DHT22;673;48.098;14.422;2022-09-30T00:50:12;9.90;99.90
1359;DHT22;673;48.098;14.422;2022-09-30T00:52:40;9.90;99.90
1359;DHT22;673;48.098;14.422;2022-09-30T00:55:19;9.80;99.90
1359;DHT22;673;48.098;14.422;2022-09-30T00:57:49;9.90;99.90
1359;DHT22;673;48.098;14.422;2022-09-30T01:00:16;9.90;99.90
1359;DHT22;673;48.098;14.422;2022-09-30T01:02:45;9.90;99.90
1359;DHT22;673;48.098;14.422;2022-09-30T01:05:13;9.90;99.90
1359;DHT22;673;48.098;14.422;2022-09-30T01:07:40;9.90;99.90
1359;DHT22;673;48.098;14.422;2022-09-30T01:10:08;9.90;99.90
1359;DHT22;673;48.098;14.422;2022-09-30T01:12:35;9.80;99.90
1359;DHT22;673;48.098;14.422;2022-09-30T01:15:02;9.80;99.90
1359;DHT22;673;48.098;14.422;2022-09-30T01:17:38;9.80;99.90
1359;DHT22;673;48.098;14.422;2022-09-30T01:20:46;9.80;99.90
1359;DHT22;673;48.098;14.422;2022-09-30T01:23:41;9.90;99.90
1359;DHT22;673;48.098;14.422;2022-09-30T01:26:43;9.80;99.90
1359;DHT22;673;48.098;14.422;2022-09-30T01:29:39;9.90;99.90
1359;DHT22;673;48.098;14.422;2022-09-30T01:32:19;9.80;99.90
1359;DHT22;673;48.098;14.422;2022-09-30T01:34:54;9.90;99.90
1359;DHT22;673;48.098;14.422;2022-09-30T01:37:31;9.90;99.90
1359;DHT22;673;48.098;14.422;2022-09-30T01:40:06;9.90;99.90
1359;DHT22;673;48.098;14.422;2022-09-30T01:42:38;9.90;99.90
1359;DHT22;673;48.098;14.422;2022-09-30T01:45:09;9.90;99.90
1359;DHT22;673;48.098;14.422;2022-09-30T01:47:45;9.90;99.90
1359;DHT22;673;48.098;14.422;2022-09-30T01:50:17;9.90;99.90
1359;DHT22;673;48.098;14.422;2022-09-30T01:52:54;9.90;99.90
1359;DHT22;673;48.098;14.422;2022-09-30T01:55:26;9.90;99.90
1359;DHT22;673;48.098;14.422;2022-09-30T01:57:59;9.90;99.90
1359;DHT22;673;48.098;14.422;2022-09-30T02:00:29;9.90;99.90
1359;DHT22;673;48.098;14.422;2022-09-30T02:03:03;10.00;99.90
1359;DHT22;673;48.098;14.422;2022-09-30T02:05:47;10.00;99.90
1359;DHT22;673;48.098;14.422;2022-09-30T02:08:20;9.90;99.90
1359;DHT22;673;48.098;14.422;2022-09-30T02:10:51;9.90;99.90
1359;DHT22;673;48.098;14.422;2022-09-30T02:13:24;9.90;99.90
1359;DHT22;673;48.098;14.422;2022-09-30T02:15:56;10.00;99.90
1359;DHT22;673;48.098;14.422;2022-09-30T02:18:28;10.00;99.90
1359;DHT22;673;48.098;14.422;2022-09-30T02:20:59;10.10;99.90
1359;DHT22;673;48.098;14.422;2022-09-30T02:23:29;10.10;99.90
1359;DHT22;673;48.098;14.422;2022-09-30T02:26:00;10.10;99.90
1359;DHT22;673;48.098;14.422;2022-09-30T02:28:31;10.10;99.90
1359;DHT22;673;48.098;14.422;2022-09-30T02:31:00;10.10;99.90
1359;DHT22;673;48.098;14.422;2022-09-30T02:33:33;10.10;99.90
1359;DHT22;673;48.098;14.422;2022-09-30T02:36:04;10.10;99.90
1359;DHT22;673;48.098;14.422;2022-09-30T02:38:37;10.10;99.90
1359;DHT22;673;48.098;14.422;2022-09-30T02:41:09;10.10;99.90
1359;DHT22;673;48.098;14.422;2022-09-30T02:43:37;10.10;99.90
1359;DHT22;673;48.098;14.422;2022-09-30T02:46:12;10.10;99.90
1359;DHT22;673;48.098;14.422;2022-09-30T02:48:46;10.10;99.90
1359;DHT22;673;48.098;14.422;2022-09-30T02:51:17;10.10;99.90
1359;DHT22;673;48.098;14.422;2022-09-30T02:53:53;10.10;99.90
1359;DHT22;673;48.098;14.422;2022-09-30T02:56:27;10.10;99.90
1359;DHT22;673;48.098;14.422;2022-09-30T02:59:00;10.10;99.90
1359;DHT22;673;48.098;14.422;2022-09-30T03:01:28;10.10;99.90
1359;DHT22;673;48.098;14.422;2022-09-30T03:04:00;10.10;99.90
1359;DHT22;673;48.098;14.422;2022-09-30T03:06:28;10.00;99.90
1359;DHT22;673;48.098;14.422;2022-09-30T03:08:55;10.10;99.90
1359;DHT22;673;48.098;14.422;2022-09-30T03:11:25;10.00;99.90
1359;DHT22;673;48.098;14.422;2022-09-30T03:14:16;10.00;99.90
1359;DHT22;673;48.098;14.422;2022-09-30T03:17:25;10.00;99.90
1359;DHT22;673;48.098;14.422;2022-09-30T03:20:11;10.00;99.90
1359;DHT22;673;48.098;14.422;2022-09-30T03:23:02;10.00;99.90
1359;DHT22;673;48.098;14.422;2022-09-30T03:25:41;10.00;99.90
1359;DHT22;673;48.098;14.422;2022-09-30T03:28:18;10.10;99.90
1359;DHT22;673;48.098;14.422;2022-09-30T03:31:01;10.00;99.90
1359;DHT22;673;48.098;14.422;2022-09-30T03:33:38;10.00;99.90
1359;DHT22;673;48.098;14.422;2022-09-30T03:36:13;10.00;99.90
1359;DHT22;673;48.098;14.422;2022-09-30T03:38:47;10.00;99.90
1359;DHT22;673;48.098;14.422;2022-09-30T03:41:21;10.10;99.90
1359;DHT22;673;48.098;14.422;2022-09-30T03:43:56;10.10;99.90
1359;DHT22;673;48.098;14.422;2022-09-30T03:46:28;10.10;99.90
1359;DHT22;673;48.098;14.422;2022-09-30T03:48:59;10.10;99.90
1359;DHT22;673;48.098;14.422;2022-09-30T03:51:29;10.00;99.90
1359;DHT22;673;48.098;14.422;2022-09-30T03:53:57;10.00;99.90
1359;DHT22;673;48.098;14.422;2022-09-30T03:56:25;10.00;99.90
1359;DHT22;673;48.098;14.422;2022-09-30T03:58:53;10.00;99.90
1359;DHT22;673;48.098;14.422;2022-09-30T04:01:20;10.00;99.90
1359;DHT22;673;48.098;14.422;2022-09-30T04:03:48;10.00;99.90
1359;DHT22;673;48.098;14.422;2022-09-30T04:06:17;10.00;99.90
1359;DHT22;673;48.098;14.422;2022-09-30T04:08:46;10.00;99.90
1359;DHT22;673;48.098;14.422;2022-09-30T04:11:14;10.00;99.90
1359;DHT22;673;48.098;14.422;2022-09-30T04:13:41;9.90;99.90
1359;DHT22;673;48.098;14.422;2022-09-30T04:16:08;9.90;99.90
1359;DHT22;673;48.098;14.422;2022-09-30T04:18:35;9.80;99.90
1359;DHT22;673;48.098;14.422;2022-09-30T04:21:04;9.80;99.90
1359;DHT22;673;48.098;14.422;2022-09-30T04:23:33;9.80;99.90
1359;DHT22;673;48.098;14.422;2022-09-30T04:26:02;9.90;99.90
1359;DHT22;673;48.098;14.422;2022-09-30T04:28:30;9.80;99.90
1359;DHT22;673;48.098;14.422;2022-09-30T04:30:59;9.80;99.90
1359;DHT22;673;48.098;14.422;2022-09-30T04:33:26;9.80;99.90
1359;DHT22;673;48.098;14.422;2022-09-30T04:35:53;9.80;99.90
1359;DHT22;673;48.098;14.422;2022-09-30T04:38:21;9.70;99.90
1359;DHT22;673;48.098;14.422;2022-09-30T04:40:49;9.80;99.90
1359;DHT22;673;48.098;14.422;2022-09-30T04:43:18;9.70;99.90
1359;DHT22;673;48.098;14.422;2022-09-30T04:45:47;9.80;99.90
1359;DHT22;673;48.098;14.422;2022-09-30T04:48:15;9.80;99.90
1359;DHT22;673;48.098;14.422;2022-09-30T04:50:42;9.80;99.90
1359;DHT22;673;48.098;14.422;2022-09-30T04:53:11;9.80;99.90
1359;DHT22;673;48.098;14.422;2022-09-30T04:55:39;9.80;99.90
1359;DHT22;673;48.098;14.422;2022-09-30T04:58:06;9.80;99.90
1359;DHT22;673;48.098;14.422;2022-09-30T05:00:34;9.80;99.90
1359;DHT22;673;48.098;14.422;2022-09-30T05:03:01;9.80;99.90
1359;DHT22;673;48.098;14.422;2022-09-30T05:05:29;9.70;99.90
1359;DHT22;673;48.098;14.422;2022-09-30T05:07:59;9.70;99.90
1359;DHT22;673;48.098;14.422;2022-09-30T05:10:26;9.70;99.90
1359;DHT22;673;48.098;14.422;2022-09-30T05:12:55;9.70;99.90
1359;DHT22;673;48.098;14.422;2022-09-30T05:15:22;9.70;99.90
1359;DHT22;673;48.098;14.422;2022-09-30T05:17:51;9.70;99.90
1359;DHT22;673;48.098;14.422;2022-09-30T05:20:18;9.70;99.90
1359;DHT22;673;48.098;14.422;2022-09-30T05:22:46;9.70;99.90
1359;DHT22;673;48.098;14.422;2022-09-30T05:25:13;9.70;99.90
1359;DHT22;673;48.098;14.422;2022-09-30T05:27:40;9.70;99.90
1359;DHT22;673;48.098;14.422;2022-09-30T05:30:08;9.70;99.90
1359;DHT22;673;48.098;14.422;2022-09-30T05:32:35;9.70;99.90
1359;DHT22;673;48.098;14.422;2022-09-30T05:35:04;9.70;99.90
1359;DHT22;673;48.098;14.422;2022-09-30T05:37:32;9.70;99.90
1359;DHT22;673;48.098;14.422;2022-09-30T05:40:00;9.70;99.90
1359;DHT22;673;48.098;14.422;2022-09-30T05:42:27;9.70;99.90
1359;DHT22;673;48.098;14.422;2022-09-30T05:44:57;9.70;99.90
1359;DHT22;673;48.098;14.422;2022-09-30T05:47:23;9.70;99.90
1359;DHT22;673;48.098;14.422;2022-09-30T05:49:50;9.70;99.90
1359;DHT22;673;48.098;14.422;2022-09-30T05:52:19;9.70;99.90
1359;DHT22;673;48.098;14.422;2022-09-30T05:54:46;9.80;99.90
1359;DHT22;673;48.098;14.422;2022-09-30T05:57:14;9.80;99.90
1359;DHT22;673;48.098;14.422;2022-09-30T05:59:42;9.80;99.90
1359;DHT22;673;48.098;14.422;2022-09-30T06:02:09;9.80;99.90
1359;DHT22;673;48.098;14.422;2022-09-30T06:04:36;9.90;99.90
1359;DHT22;673;48.098;14.422;2022-09-30T06:07:03;9.80;99.90
1359;DHT22;673;48.098;14.422;2022-09-30T06:09:32;9.80;99.90
1359;DHT22;673;48.098;14.422;2022-09-30T06:11:59;9.90;99.90
1359;DHT22;673;48.098;14.422;2022-09-30T06:14:26;9.90;99.90
1359;DHT22;673;48.098;14.422;2022-09-30T06:16:53;9.90;99.90
1359;DHT22;673;48.098;14.422;2022-09-30T06:19:20;10.00;99.90
1359;DHT22;673;48.098;14.422;2022-09-30T06:21:47;10.10;99.90
1359;DHT22;673;48.098;14.422;2022-09-30T06:24:14;10.10;99.90
1359;DHT22;673;48.098;14.422;2022-09-30T06:26:42;10.10;99.90
1359;DHT22;673;48.098;14.422;2022-09-30T06:29:09;10.30;99.90
1359;DHT22;673;48.098;14.422;2022-09-30T06:31:36;10.30;99.90
1359;DHT22;673;48.098;14.422;2022-09-30T06:34:03;10.40;99.90
1359;DHT22;673;48.098;14.422;2022-09-30T06:36:31;10.30;99.90
1359;DHT22;673;48.098;14.422;2022-09-30T06:38:59;10.40;99.90
1359;DHT22;673;48.098;14.422;2022-09-30T06:41:26;10.40;99.90
1359;DHT22;673;48.098;14.422;2022-09-30T06:43:56;10.50;99.90
1359;DHT22;673;48.098;14.422;2022-09-30T06:46:24;10.50;99.90
1359;DHT22;673;48.098;14.422;2022-09-30T06:48:53;10.60;99.90
1359;DHT22;673;48.098;14.422;2022-09-30T06:51:21;10.60;99.90
1359;DHT22;673;48.098;14.422;2022-09-30T06:53:51;10.60;99.90
1359;DHT22;673;48.098;14.422;2022-09-30T06:56:18;10.50;99.90
1359;DHT22;673;48.098;14.422;2022-09-30T06:58:46;10.60;99.90
1359;DHT22;673;48.098;14.422;2022-09-30T07:01:14;10.50;99.90
1359;DHT22;673;48.098;14.422;2022-09-30T07:03:43;10.40;99.90
1359;DHT22;673;48.098;14.422;2022-09-30T07:06:12;10.40;99.90
1359;DHT22;673;48.098;14.422;2022-09-30T07:08:39;10.40;99.90
1359;DHT22;673;48.098;14.422;2022-09-30T07:11:08;10.30;99.90
1359;DHT22;673;48.098;14.422;2022-09-30T07:13:39;10.40;99.90
1359;DHT22;673;48.098;14.422;2022-09-30T07:16:07;10.40;99.90
1359;DHT22;673;48.098;14.422;2022-09-30T07:18:38;10.30;99.90
1359;DHT22;673;48.098;14.422;2022-09-30T07:21:07;10.40;99.90
1359;DHT22;673;48.098;14.422;2022-09-30T07:23:34;10.30;99.90
1359;DHT22;673;48.098;14.422;2022-09-30T07:26:02;10.30;99.90
1359;DHT22;673;48.098;14.422;2022-09-30T07:28:33;10.30;99.90
1359;DHT22;673;48.098;14.422;2022-09-30T07:31:07;10.20;99.90
1359;DHT22;673;48.098;14.422;2022-09-30T07:33:38;10.30;99.90
1359;DHT22;673;48.098;14.422;2022-09-30T07:36:06;10.30;99.90
1359;DHT22;673;48.098;14.422;2022-09-30T07:38:35;10.30;99.90
1359;DHT22;673;48.098;14.422;2022-09-30T07:41:07;10.30;99.90
1359;DHT22;673;48.098;14.422;2022-09-30T07:43:35;10.20;99.90
1359;DHT22;673;48.098;14.422;2022-09-30T07:46:04;10.20;99.90
1359;DHT22;673;48.098;14.422;2022-09-30T07:48:32;10.30;99.90
1359;DHT22;673;48.098;14.422;2022-09-30T07:51:12;10.30;99.90
1359;DHT22;673;48.098;14.422;2022-09-30T07:53:40;10.30;99.90
1359;DHT22;673;48.098;14.422;2022-09-30T07:56:09;10.30;99.90
1359;DHT22;673;48.098;14.422;2022-09-30T07:58:36;10.50;99.90
1359;DHT22;673;48.098;14.422;2022-09-30T08:01:04;10.50;99.90
1359;DHT22;673;48.098;14.422;2022-09-30T08:03:33;10.50;99.90
1359;DHT22;673;48.098;14.422;2022-09-30T08:06:04;10.60;99.90
1359;DHT22;673;48.098;14.422;2022-09-30T08:08:33;10.70;99.90
1359;DHT22;673;48.098;14.422;2022-09-30T08:11:00;10.70;99.90
1359;DHT22;673;48.098;14.422;2022-09-30T08:13:27;10.80;99.90
1359;DHT22;673;48.098;14.422;2022-09-30T08:15:54;10.80;99.90
1359;DHT22;673;48.098;14.422;2022-09-30T08:18:21;10.90;99.90
1359;DHT22;673;48.098;14.422;2022-09-30T08:20:48;10.90;99.90
1359;DHT22;673;48.098;14.422;2022-09-30T08:23:15;10.90;99.90
1359;DHT22;673;48.098;14.422;2022-09-30T08:25:44;11.00;99.90
1359;DHT22;673;48.098;14.422;2022-09-30T08:28:11;11.10;99.90
1359;DHT22;673;48.098;14.422;2022-09-30T08:30:39;11.20;99.90
1359;DHT22;673;48.098;14.422;2022-09-30T08:33:06;11.20;99.90
1359;DHT22;673;48.098;14.422;2022-09-30T08:35:34;11.20;99.90
1359;DHT22;673;48.098;14.422;2022-09-30T08:38:01;11.30;99.90
1359;DHT22;673;48.098;14.422;2022-09-30T08:40:31;11.40;99.90
1359;DHT22;673;48.098;14.422;2022-09-30T08:43:13;11.50;99.90
1359;DHT22;673;48.098;14.422;2022-09-30T08:45:48;11.50;99.90
1359;DHT22;673;48.098;14.422;2022-09-30T08:48:30;11.40;99.90
1359;DHT22;673;48.098;14.422;2022-09-30T08:51:04;11.60;99.90
1359;DHT22;673;48.098;14.422;2022-09-30T08:53:36;11.80;99.90
1359;DHT22;673;48.098;14.422;2022-09-30T08:56:05;12.30;99.90
1359;DHT22;673;48.098;14.422;2022-09-30T08:58:36;12.50;99.90
1359;DHT22;673;48.098;14.422;2022-09-30T09:01:16;12.70;99.90
1359;DHT22;673;48.098;14.422;2022-09-30T09:03:45;12.70;99.90
1359;DHT22;673;48.098;14.422;2022-09-30T09:06:19;12.70;99.90
1359;DHT22;673;48.098;14.422;2022-09-30T09:12:06;12.60;99.90
1359;DHT22;673;48.098;14.422;2022-09-30T09:14:49;12.60;99.90
1359;DHT22;673;48.098;14.422;2022-09-30T09:17:28;12.70;99.90
1359;DHT22;673;48.098;14.422;2022-09-30T09:20:02;12.80;99.90
1359;DHT22;673;48.098;14.422;2022-09-30T09:22:34;13.00;99.90
1359;DHT22;673;48.098;14.422;2022-09-30T09:25:03;13.10;99.90
1359;DHT22;673;48.098;14.422;2022-09-30T09:27:40;13.40;99.90
1359;DHT22;673;48.098;14.422;2022-09-30T09:30:12;13.50;99.90
1359;DHT22;673;48.098;14.422;2022-09-30T09:32:41;13.60;99.90
1359;DHT22;673;48.098;14.422;2022-09-30T09:35:13;13.70;99.90
1359;DHT22;673;48.098;14.422;2022-09-30T09:37:48;13.80;99.90
1359;DHT22;673;48.098;14.422;2022-09-30T09:40:42;13.80;99.90
1359;DHT22;673;48.098;14.422;2022-09-30T09:43:27;14.00;99.90
1359;DHT22;673;48.098;14.422;2022-09-30T09:46:03;13.80;99.90
1359;DHT22;673;48.098;14.422;2022-09-30T09:48:33;14.30;99.90
1359;DHT22;673;48.098;14.422;2022-09-30T09:51:05;14.50;99.90
1359;DHT22;673;48.098;14.422;2022-09-30T09:53:43;14.70;99.90
1359;DHT22;673;48.098;14.422;2022-09-30T09:56:15;15.20;99.90
1359;DHT22;673;48.098;14.422;2022-09-30T09:59:03;15.00;99.90
1359;DHT22;673;48.098;14.422;2022-09-30T10:01:32;14.70;99.90
1359;DHT22;673;48.098;14.422;2022-09-30T10:04:07;14.50;99.90
1359;DHT22;673;48.098;14.422;2022-09-30T10:06:46;14.30;99.90
1359;DHT22;673;48.098;14.422;2022-09-30T10:09:26;14.10;99.90
1359;DHT22;673;48.098;14.422;2022-09-30T10:12:18;13.80;99.90
1359;DHT22;673;48.098;14.422;2022-09-30T10:15:10;13.60;99.90
1359;DHT22;673;48.098;14.422;2022-09-30T10:17:42;13.60;99.90
1359;DHT22;673;48.098;14.422;2022-09-30T10:20:22;13.60;99.90
1359;DHT22;673;48.098;14.422;2022-09-30T10:22:59;13.70;99.90
1359;DHT22;673;48.098;14.422;2022-09-30T10:25:27;13.80;99.90
1359;DHT22;673;48.098;14.422;2022-09-30T10:27:56;13.80;99.90
1359;DHT22;673;48.098;14.422;2022-09-30T10:30:43;14.00;99.90
1359;DHT22;673;48.098;14.422;2022-09-30T10:33:17;14.20;99.90
1359;DHT22;673;48.098;14.422;2022-09-30T10:35:55;14.10;99.90
1359;DHT22;673;48.098;14.422;2022-09-30T10:38:24;14.00;99.90
1359;DHT22;673;48.098;14.422;2022-09-30T10:40:54;13.80;99.90
1359;DHT22;673;48.098;14.422;2022-09-30T10:43:25;13.70;99.90
1359;DHT22;673;48.098;14.422;2022-09-30T10:45:52;13.50;99.90
1359;DHT22;673;48.098;14.422;2022-09-30T10:48:22;13.40;99.90
1359;DHT22;673;48.098;14.422;2022-09-30T10:50:51;13.20;99.90
1359;DHT22;673;48.098;14.422;2022-09-30T10:53:22;13.10;99.90
1359;DHT22;673;48.098;14.422;2022-09-30T10:55:50;13.10;99.90
1359;DHT22;673;48.098;14.422;2022-09-30T10:58:39;13.20;99.90
1359;DHT22;673;48.098;14.422;2022-09-30T11:01:16;13.30;99.90
1359;DHT22;673;48.098;14.422;2022-09-30T11:03:55;13.40;99.90
1359;DHT22;673;48.098;14.422;2022-09-30T11:06:23;13.50;99.90
1359;DHT22;673;48.098;14.422;2022-09-30T11:08:55;13.60;99.90
1359;DHT22;673;48.098;14.422;2022-09-30T11:11:26;13.80;99.90
1359;DHT22;673;48.098;14.422;2022-09-30T11:13:56;13.90;99.90
1359;DHT22;673;48.098;14.422;2022-09-30T11:16:30;14.00;99.90
1359;DHT22;673;48.098;14.422;2022-09-30T11:19:03;14.20;99.90
1359;DHT22;673;48.098;14.422;2022-09-30T11:21:38;14.40;99.90
1359;DHT22;673;48.098;14.422;2022-09-30T11:24:18;14.50;99.90
1359;DHT22;673;48.098;14.422;2022-09-30T11:26:54;14.80;99.90
1359;DHT22;673;48.098;14.422;2022-09-30T11:29:35;15.00;99.90
1359;DHT22;673;48.098;14.422;2022-09-30T11:32:13;15.10;99.90
1359;DHT22;673;48.098;14.422;2022-09-30T11:34:55;15.10;99.90
1359;DHT22;673;48.098;14.422;2022-09-30T11:37:34;14.70;99.90
1359;DHT22;673;48.098;14.422;2022-09-30T11:40:29;14.40;99.90
1359;DHT22;673;48.098;14.422;2022-09-30T11:43:07;14.70;99.90
1359;DHT22;673;48.098;14.422;2022-09-30T11:48:35;14.90;99.90
1359;DHT22;673;48.098;14.422;2022-09-30T11:51:15;14.70;99.90
1359;DHT22;673;48.098;14.422;2022-09-30T11:53:51;14.70;99.90
1359;DHT22;673;48.098;14.422;2022-09-30T11:56:34;14.90;99.90
1359;DHT22;673;48.098;14.422;2022-09-30T11:59:05;15.00;99.90
1359;DHT22;673;48.098;14.422;2022-09-30T12:01:40;15.00;99.90
1359;DHT22;673;48.098;14.422;2022-09-30T12:04:14;15.10;99.90
1359;DHT22;673;48.098;14.422;2022-09-30T12:06:48;14.80;99.90
1359;DHT22;673;48.098;14.422;2022-09-30T12:09:20;14.30;99.90
1359;DHT22;673;48.098;14.422;2022-09-30T12:11:53;14.30;99.90
1359;DHT22;673;48.098;14.422;2022-09-30T12:14:26;14.20;99.90
1359;DHT22;673;48.098;14.422;2022-09-30T12:16:55;14.20;99.90
1359;DHT22;673;48.098;14.422;2022-09-30T12:19:28;14.30;99.90
1359;DHT22;673;48.098;14.422;2022-09-30T12:22:00;14.20;99.90
1359;DHT22;673;48.098;14.422;2022-09-30T12:24:33;14.30;99.90
1359;DHT22;673;48.098;14.422;2022-09-30T12:27:02;14.40;99.90
1359;DHT22;673;48.098;14.422;2022-09-30T12:29:34;14.50;99.90
1359;DHT22;673;48.098;14.422;2022-09-30T12:35:55;14.80;99.90
1359;DHT22;673;48.098;14.422;2022-09-30T12:38:45;14.70;99.90
1359;DHT22;673;48.098;14.422;2022-09-30T12:41:27;15.10;99.90
1359;DHT22;673;48.098;14.422;2022-09-30T12:47:32;16.00;99.90
1359;DHT22;673;48.098;14.422;2022-09-30T12:50:03;15.50;99.90
1359;DHT22;673;48.098;14.422;2022-09-30T12:52:34;15.70;99.90
1359;DHT22;673;48.098;14.422;2022-09-30T12:55:08;15.90;99.90
1359;DHT22;673;48.098;14.422;2022-09-30T12:57:42;16.10;99.90
1359;DHT22;673;48.098;14.422;2022-09-30T13:00:14;15.90;99.90
1359;DHT22;673;48.098;14.422;2022-09-30T13:02:43;15.70;99.90
1359;DHT22;673;48.098;14.422;2022-09-30T13:05:50;15.50;99.90
1359;DHT22;673;48.098;14.422;2022-09-30T13:08:39;15.40;99.90
1359;DHT22;673;48.098;14.422;2022-09-30T13:11:27;15.20;99.90
1359;DHT22;673;48.098;14.422;2022-09-30T13:13:57;15.20;99.90
1359;DHT22;673;48.098;14.422;2022-09-30T13:19:33;15.20;99.90
1359;DHT22;673;48.098;14.422;2022-09-30T13:25:17;15.20;99.90
1359;DHT22;673;48.098;14.422;2022-09-30T13:27:47;15.10;99.90
1359;DHT22;673;48.098;14.422;2022-09-30T13:30:39;15.20;99.90
1359;DHT22;673;48.098;14.422;2022-09-30T13:33:29;15.50;99.90
1359;DHT22;673;48.098;14.422;2022-09-30T13:36:04;15.60;99.90
1359;DHT22;673;48.098;14.422;2022-09-30T13:38:34;15.40;99.90
1359;DHT22;673;48.098;14.422;2022-09-30T13:41:06;15.20;99.90
1359;DHT22;673;48.098;14.422;2022-09-30T13:43:39;15.20;99.90
1359;DHT22;673;48.098;14.422;2022-09-30T13:46:16;15.10;99.90
1359;DHT22;673;48.098;14.422;2022-09-30T13:48:50;15.10;99.90
1359;DHT22;673;48.098;14.422;2022-09-30T13:51:20;15.10;99.90
1359;DHT22;673;48.098;14.422;2022-09-30T13:53:50;14.80;99.90
1359;DHT22;673;48.098;14.422;2022-09-30T13:56:21;15.00;99.90
1359;DHT22;673;48.098;14.422;2022-09-30T14:02:36;15.10;99.90
1359;DHT22;673;48.098;14.422;2022-09-30T14:05:23;15.00;99.90
1359;DHT22;673;48.098;14.422;2022-09-30T14:08:06;14.90;99.90
1359;DHT22;673;48.098;14.422;2022-09-30T14:10:51;14.90;99.90
1359;DHT22;673;48.098;14.422;2022-09-30T14:13:35;14.80;99.90
1359;DHT22;673;48.098;14.422;2022-09-30T14:19:35;14.90;99.90
1359;DHT22;673;48.098;14.422;2022-09-30T14:22:08;14.80;99.90
1359;DHT22;673;48.098;14.422;2022-09-30T14:24:37;14.70;99.90
1359;DHT22;673;48.098;14.422;2022-09-30T14:27:24;14.80;99.90
1359;DHT22;673;48.098;14.422;2022-09-30T14:30:00;14.70;99.90
1359;DHT22;673;48.098;14.422;2022-09-30T14:32:31;14.60;99.90
1359;DHT22;673;48.098;14.422;2022-09-30T14:35:05;14.60;99.90
1359;DHT22;673;48.098;14.422;2022-09-30T14:37:39;14.50;99.90
1359;DHT22;673;48.098;14.422;2022-09-30T14:40:09;14.40;99.90
1359;DHT22;673;48.098;14.422;2022-09-30T14:42:40;14.50;99.90
1359;DHT22;673;48.098;14.422;2022-09-30T14:45:16;14.60;99.90
1359;DHT22;673;48.098;14.422;2022-09-30T14:47:46;14.70;99.90
1359;DHT22;673;48.098;14.422;2022-09-30T14:50:19;14.70;99.90
1359;DHT22;673;48.098;14.422;2022-09-30T14:52:48;14.60;99.90
1359;DHT22;673;48.098;14.422;2022-09-30T14:55:24;14.70;99.90
1359;DHT22;673;48.098;14.422;2022-09-30T14:57:52;14.70;99.90
1359;DHT22;673;48.098;14.422;2022-09-30T15:00:28;14.80;99.90
1359;DHT22;673;48.098;14.422;2022-09-30T15:02:56;15.00;99.90
1359;DHT22;673;48.098;14.422;2022-09-30T15:05:25;15.00;99.90
1359;DHT22;673;48.098;14.422;2022-09-30T15:07:52;14.80;99.90
1359;DHT22;673;48.098;14.422;2022-09-30T15:10:21;14.70;99.90
1359;DHT22;673;48.098;14.422;2022-09-30T15:12:49;14.60;99.90
1359;DHT22;673;48.098;14.422;2022-09-30T15:15:32;14.50;99.90
1359;DHT22;673;48.098;14.422;2022-09-30T15:21:10;14.60;99.90
1359;DHT22;673;48.098;14.422;2022-09-30T15:23:40;14.60;99.90
1359;DHT22;673;48.098;14.422;2022-09-30T15:26:10;14.50;99.90
1359;DHT22;673;48.098;14.422;2022-09-30T15:28:37;14.50;99.90
1359;DHT22;673;48.098;14.422;2022-09-30T15:31:05;14.40;99.90
1359;DHT22;673;48.098;14.422;2022-09-30T15:33:34;14.20;99.90
1359;DHT22;673;48.098;14.422;2022-09-30T15:36:05;14.20;99.90
1359;DHT22;673;48.098;14.422;2022-09-30T15:38:35;14.40;99.90
1359;DHT22;673;48.098;14.422;2022-09-30T15:41:05;14.20;99.90
1359;DHT22;673;48.098;14.422;2022-09-30T15:43:35;14.10;99.90
1359;DHT22;673;48.098;14.422;2022-09-30T15:46:21;14.00;99.90
1359;DHT22;673;48.098;14.422;2022-09-30T15:48:52;14.00;99.90
1359;DHT22;673;48.098;14.422;2022-09-30T15:51:38;13.90;99.90
1359;DHT22;673;48.098;14.422;2022-09-30T15:54:28;13.90;99.90
1359;DHT22;673;48.098;14.422;2022-09-30T15:56:58;14.00;99.90
1359;DHT22;673;48.098;14.422;2022-09-30T15:59:58;13.90;99.90
1359;DHT22;673;48.098;14.422;2022-09-30T16:02:28;13.80;99.90
1359;DHT22;673;48.098;14.422;2022-09-30T16:04:57;13.80;99.90
1359;DHT22;673;48.098;14.422;2022-09-30T16:07:24;13.80;99.90
1359;DHT22;673;48.098;14.422;2022-09-30T16:09:54;13.70;99.90
1359;DHT22;673;48.098;14.422;2022-09-30T16:12:25;13.70;99.90
1359;DHT22;673;48.098;14.422;2022-09-30T16:14:57;13.70;99.90
1359;DHT22;673;48.098;14.422;2022-09-30T16:17:26;13.70;99.90
1359;DHT22;673;48.098;14.422;2022-09-30T16:19:56;13.60;99.90
1359;DHT22;673;48.098;14.422;2022-09-30T16:22:34;13.50;99.90
1359;DHT22;673;48.098;14.422;2022-09-30T16:25:17;13.40;99.90
1359;DHT22;673;48.098;14.422;2022-09-30T16:27:44;13.40;99.90
1359;DHT22;673;48.098;14.422;2022-09-30T16:30:13;13.40;99.90
1359;DHT22;673;48.098;14.422;2022-09-30T16:32:43;13.40;99.90
1359;DHT22;673;48.098;14.422;2022-09-30T16:35:16;13.40;99.90
1359;DHT22;673;48.098;14.422;2022-09-30T16:37:44;13.40;99.90
1359;DHT22;673;48.098;14.422;2022-09-30T16:40:19;13.40;99.90
1359;DHT22;673;48.098;14.422;2022-09-30T16:42:46;13.40;99.90
1359;DHT22;673;48.098;14.422;2022-09-30T16:45:14;13.40;99.90
1359;DHT22;673;48.098;14.422;2022-09-30T16:47:41;13.30;99.90
1359;DHT22;673;48.098;14.422;2022-09-30T16:50:16;13.30;99.90
1359;DHT22;673;48.098;14.422;2022-09-30T16:52:44;13.30;99.90
1359;DHT22;673;48.098;14.422;2022-09-30T16:55:11;13.20;99.90
1359;DHT22;673;48.098;14.422;2022-09-30T16:57:41;13.20;99.90
1359;DHT22;673;48.098;14.422;2022-09-30T17:00:12;13.10;99.90
1359;DHT22;673;48.098;14.422;2022-09-30T17:02:43;13.00;99.90
1359;DHT22;673;48.098;14.422;2022-09-30T17:05:12;13.00;99.90
1359;DHT22;673;48.098;14.422;2022-09-30T17:07:42;12.90;99.90